Decoded Metar for NZWN (WELLINGTON in NEW ZEALAND) (IATA:WLG) | Meteo·Mobile Aviation Weather
aviador You're here:

NZWN Decoded Metar

WELLINGTON in NEW ZEALAND
Report Time2019-07-21 17:30:00
UTC Time2019-07-21 17:47:27
Flight Rules vfr VFR
Wind020° at 02 kt
W.Decomp.*RWY 34: 1.9 kt HW 0.7 kt RCW
Visibility9999 m
Phenomena:Rain
Clouds:Overcast 060 Hf
Expected CloudBase > 400 ft AGL from Temp-Dew spread
Ceiling6,000 ft
Temp09°C (ISA -6)
Dew Point08°C (94% RH)
AAT7.8°C
QNH1014 hPa
Density Alt-581 ft
Elevation23 ft
Report Wrong Elevation
Raw Report
NZWN 211730Z AUTO 02002KT 9999 OVC060/// 09/08 Q1014 TEMPO 6000 RA
BKN012=

Extra information for NZWN:More info

Metar Taf Metar & Taf Last 4 Metars F.Rules Stats Wind Profile Meteogram Temp Stats Airport Information Weather charts Add Link Nearby VenuesMetar ALERT Operation Metar Decoded Social comments